首页
METAR-TAF:

METAR-TAF

机场 :

Decorah Municipal Airport

Decorah, 艾奥瓦州, 美国

纬度: 43-17N, 经度: 091-44W, 海拔: 353米

当前天气观测

该预报发布于13分钟前的14:15 UTC
风速11节,风向西,有时为20节阵风,在南转西南西转西北之间变化
温度 21°C
湿度 69%
气压 1009 hPa
能見度: 16.1公里
天空无云

METAR: KDEH 251415Z AUTO 26011G20KT 210V290 10SM CLR 21/15 A2979 RMK AO2

时间: 09:28 (14:28 UTC)


TAF: 丢失

超过4000个机场的气象观测和天气预报(METAR&TAF报告)。

可查询的气象台以黄色和红色小点在地图上表示。

将鼠标移到小点上方,可查看气象台名称。

然后点击查看天气观测和预报。

如需切换地图:点击带黑十字的绿色按钮放大地图;点击带横线的绿色按钮缩小地图;或者点击绿色箭头查看邻近地区的地图。


METAR-TAF: